createdAt,value
2023-05-19T00:06:43.937Z,77.9940
2023-05-19T00:09:47.280Z,78.8728
2023-05-19T00:10:48.853Z,78.9174
2023-05-19T00:11:50.668Z,78.2851
2023-05-19T00:12:53.857Z,79.2402
2023-05-19T00:13:52.645Z,78.6616
2023-05-19T00:14:53.837Z,80.1486
2023-05-19T00:15:55.048Z,80.3890
2023-05-19T00:16:56.297Z,79.0693
2023-05-19T00:17:58.302Z,79.3510
2023-05-19T00:18:59.609Z,78.9061
2023-05-19T00:20:01.010Z,78.2229
2023-05-19T00:21:02.224Z,78.5591
2023-05-19T00:28:12.801Z,80.4408
2023-05-19T00:29:14.369Z,80.1015
2023-05-19T00:30:16.230Z,80.1630
2023-05-19T00:32:19.615Z,79.7020
2023-05-19T00:33:20.850Z,78.3352
2023-05-19T00:34:22.341Z,78.1505
2023-05-19T00:36:24.844Z,79.5117
2023-05-19T00:37:26.277Z,80.6056
2023-05-19T00:39:29.468Z,81.0495
2023-05-19T00:40:30.908Z,81.8257
2023-05-19T00:42:33.451Z,80.1300
2023-05-19T00:43:34.673Z,79.9689
2023-05-19T00:44:36.443Z,79.6694
2023-05-19T00:45:37.855Z,80.0214
2023-05-19T00:46:40.660Z,80.9756
2023-05-19T00:47:42.737Z,82.2213
2023-05-19T00:48:42.767Z,80.1481
2023-05-19T00:49:44.691Z,81.2739
2023-05-19T00:50:46.232Z,81.7789
2023-05-19T00:51:48.359Z,81.2709
2023-05-19T00:52:49.631Z,82.3631
2023-05-19T00:53:51.524Z,80.2509
2023-05-19T00:54:53.501Z,81.0228
2023-05-19T00:56:55.854Z,79.3327
2023-05-19T00:57:57.130Z,80.1203
2023-05-19T00:58:58.635Z,79.5112
2023-05-19T01:00:00.515Z,78.9914
2023-05-19T01:01:01.760Z,78.5500
2023-05-19T01:02:03.010Z,79.2246
2023-05-19T01:03:04.306Z,78.8613
2023-05-19T01:04:06.321Z,80.0998
2023-05-19T01:05:08.575Z,81.6681
2023-05-19T01:07:11.899Z,82.3011
2023-05-19T01:08:14.257Z,82.7266
2023-05-19T01:09:15.611Z,81.4183
2023-05-19T01:10:17.054Z,80.6312
2023-05-19T01:11:18.993Z,80.0810
2023-05-19T01:12:21.127Z,82.4981
2023-05-19T01:13:22.527Z,82.5378
2023-05-19T01:14:24.766Z,83.1664
2023-05-19T01:15:26.662Z,83.3908
2023-05-19T01:16:28.841Z,82.5346
2023-05-19T01:17:30.440Z,82.9836
2023-05-19T01:19:33.657Z,82.0462
2023-05-19T01:20:37.287Z,82.5105
2023-05-19T01:26:44.877Z,83.4471
2023-05-19T01:27:47.389Z,84.7913
2023-05-19T01:28:48.798Z,85.0888
2023-05-19T01:30:52.439Z,86.1357
2023-05-19T01:31:54.579Z,83.8997
2023-05-19T01:32:57.112Z,83.0777
2023-05-19T01:33:58.345Z,81.5532
2023-05-19T01:35:00.281Z,81.6976
2023-05-19T01:36:02.204Z,83.6389
2023-05-19T01:37:03.474Z,84.1611
2023-05-19T01:38:05.619Z,83.1577
2023-05-19T01:39:06.855Z,83.8517
2023-05-19T01:40:08.075Z,83.2576
2023-05-19T01:41:09.302Z,84.4538
2023-05-19T01:42:10.612Z,82.5754
2023-05-19T01:43:11.953Z,82.8776
2023-05-19T01:46:15.559Z,82.1017
2023-05-19T01:47:16.812Z,83.0157
2023-05-19T01:48:18.064Z,83.0316
2023-05-19T01:49:19.478Z,85.0281
2023-05-19T01:51:22.362Z,85.8663
2023-05-19T01:52:24.730Z,82.8742
2023-05-19T01:54:27.189Z,82.4603
2023-05-19T01:55:28.598Z,82.8042
2023-05-19T01:56:30.004Z,83.8127
2023-05-19T01:57:31.254Z,83.3761
2023-05-19T01:58:32.671Z,82.6324
2023-05-19T01:59:34.103Z,82.8679
2023-05-19T02:00:36.562Z,84.0863
2023-05-19T02:01:38.508Z,83.4519
2023-05-19T02:02:39.964Z,81.7325
2023-05-19T02:04:43.168Z,81.6697
2023-05-19T02:05:45.904Z,82.0281
2023-05-19T02:06:47.347Z,82.4769
2023-05-19T02:07:49.534Z,82.4725
2023-05-19T02:08:51.866Z,83.2381
2023-05-19T02:09:53.134Z,82.1684
2023-05-19T02:11:56.866Z,83.3276
2023-05-19T02:12:58.841Z,83.8030
2023-05-19T02:14:00.334Z,84.1092
2023-05-19T02:15:02.313Z,84.9708
2023-05-19T02:16:03.577Z,84.2095
2023-05-19T02:17:05.250Z,84.0769
2023-05-19T02:18:06.704Z,83.3521
2023-05-19T02:19:08.584Z,83.8731
2023-05-19T02:20:10.005Z,84.6153
2023-05-19T02:21:13.203Z,82.4147
2023-05-19T02:22:12.382Z,82.2305
2023-05-19T02:23:14.054Z,82.4105
2023-05-19T02:24:15.456Z,83.5740
2023-05-19T02:25:16.900Z,83.8351
2023-05-19T02:26:18.128Z,83.4962
2023-05-19T02:27:19.564Z,82.7561
2023-05-19T02:28:21.589Z,83.5063
2023-05-19T02:30:24.739Z,85.6374
2023-05-19T02:31:27.605Z,83.4255
2023-05-19T02:32:29.865Z,82.9741
2023-05-19T02:33:31.076Z,82.4089
2023-05-19T02:34:33.121Z,83.2288
2023-05-19T02:35:35.073Z,83.0394
2023-05-19T02:36:36.849Z,82.5132
2023-05-19T02:37:38.163Z,83.6293
2023-05-19T02:38:40.887Z,82.6384
2023-05-19T02:39:42.879Z,82.3708
2023-05-19T02:40:44.189Z,83.4619
2023-05-19T02:41:45.920Z,81.5843
2023-05-19T02:42:47.312Z,81.9633
2023-05-19T02:43:48.554Z,82.3485
2023-05-19T02:44:49.826Z,81.8115
2023-05-19T02:45:51.072Z,82.3871
2023-05-19T02:46:52.378Z,82.8908
2023-05-19T02:47:53.617Z,82.4927
2023-05-19T02:48:55.507Z,83.1957
2023-05-19T02:50:10.007Z,82.3755
2023-05-19T02:50:58.013Z,83.0526
2023-05-19T02:52:00.002Z,83.3918
2023-05-19T02:53:01.324Z,83.2359
2023-05-19T02:54:03.213Z,83.5545
2023-05-19T02:55:05.098Z,82.7680
2023-05-19T02:56:07.194Z,82.0840
2023-05-19T02:57:09.023Z,82.8704
2023-05-19T02:58:10.271Z,82.9019
2023-05-19T02:59:12.246Z,82.8176
2023-05-19T03:00:14.122Z,83.0519
2023-05-19T03:01:16.092Z,83.5852
2023-05-19T03:02:17.311Z,83.3634
2023-05-19T03:03:19.276Z,83.7514
2023-05-19T03:04:21.262Z,82.7466
2023-05-19T03:05:23.407Z,82.5568
2023-05-19T03:07:26.700Z,84.1624
2023-05-19T03:08:28.758Z,85.2759
2023-05-19T03:09:30.031Z,86.1530
2023-05-19T03:10:31.696Z,86.2398
2023-05-19T03:12:34.427Z,83.8324
2023-05-19T03:14:36.981Z,83.5993
2023-05-19T03:15:39.242Z,83.2147
2023-05-19T03:16:40.591Z,82.7932
2023-05-19T03:17:42.037Z,83.6749
2023-05-19T03:18:43.418Z,84.7409
2023-05-19T03:19:44.586Z,83.6201
2023-05-19T03:20:46.333Z,84.4633
2023-05-19T03:21:48.466Z,84.7924
2023-05-19T03:22:49.868Z,84.4055
2023-05-19T03:23:51.091Z,83.4124
2023-05-19T03:24:52.293Z,83.7487
2023-05-19T03:26:55.268Z,83.8223
2023-05-19T03:27:57.682Z,83.6709
2023-05-19T03:28:58.871Z,83.7300
2023-05-19T03:30:00.794Z,83.9221
2023-05-19T03:31:02.901Z,84.0997
2023-05-19T03:32:04.676Z,83.7574
2023-05-19T03:33:06.088Z,84.2139
2023-05-19T03:34:08.086Z,84.2516
2023-05-19T03:35:09.279Z,84.3421
2023-05-19T03:36:10.506Z,84.7251
2023-05-19T03:37:12.297Z,83.6853
2023-05-19T03:38:14.198Z,84.0715
2023-05-19T03:39:15.434Z,84.4318
2023-05-19T03:40:16.633Z,84.3641
2023-05-19T03:41:18.558Z,84.7830
2023-05-19T03:42:20.440Z,83.1244
2023-05-19T03:44:23.354Z,83.4152
2023-05-19T03:45:25.151Z,83.1352
2023-05-19T03:46:27.016Z,83.7821
2023-05-19T03:47:28.495Z,83.2895
2023-05-19T03:48:30.626Z,83.5704
2023-05-19T03:49:32.645Z,84.1801
2023-05-19T03:50:34.125Z,84.8645
2023-05-19T03:51:36.037Z,85.5593
2023-05-19T03:52:37.889Z,85.3886
2023-05-19T03:53:39.124Z,85.8017
2023-05-19T03:55:42.036Z,86.1787
2023-05-19T03:56:43.927Z,86.2097
2023-05-19T03:58:46.799Z,86.3870
2023-05-19T03:59:48.643Z,86.0272
2023-05-19T04:00:49.855Z,85.6257
2023-05-19T04:01:51.776Z,85.4085
2023-05-19T04:02:53.689Z,84.9660
2023-05-19T04:03:55.014Z,85.0805
2023-05-19T04:04:57.004Z,85.5752
2023-05-19T04:05:58.213Z,85.8279
2023-05-19T04:06:59.475Z,85.3458
2023-05-19T04:08:01.409Z,85.3399
2023-05-19T04:09:03.262Z,85.4289
2023-05-19T04:10:04.496Z,85.1332
2023-05-19T04:11:05.846Z,85.9317
2023-05-19T04:12:07.661Z,85.4391
2023-05-19T04:13:08.924Z,85.8765
2023-05-19T04:15:11.212Z,87.7356
2023-05-19T04:16:12.428Z,88.0223
2023-05-19T04:17:13.633Z,87.5758
2023-05-19T04:19:16.329Z,87.4626
2023-05-19T04:20:17.607Z,86.8654
2023-05-19T04:21:19.732Z,85.3676
2023-05-19T04:23:22.727Z,86.2456
2023-05-19T04:24:24.922Z,86.4802
2023-05-19T04:25:26.105Z,86.6398
2023-05-19T04:27:29.065Z,85.8025
2023-05-19T04:28:30.265Z,86.1266
2023-05-19T04:29:31.451Z,86.7513
2023-05-19T04:30:33.432Z,87.4723
2023-05-19T04:31:35.507Z,87.0836
2023-05-19T04:32:37.473Z,87.5285
2023-05-19T04:33:38.869Z,87.2346
2023-05-19T04:34:40.935Z,86.1943
2023-05-19T04:35:42.769Z,86.0495
2023-05-19T04:36:43.980Z,85.9239
2023-05-19T04:37:45.358Z,86.5381
2023-05-19T04:38:47.153Z,85.8921
2023-05-19T04:39:48.411Z,85.3294
2023-05-19T04:40:49.577Z,85.2733
2023-05-19T04:41:50.793Z,84.6903
2023-05-19T04:42:52.042Z,84.6208
2023-05-19T04:43:53.231Z,84.5095
2023-05-19T04:44:55.092Z,84.4576
2023-05-19T04:45:56.912Z,84.7062
2023-05-19T04:46:58.767Z,85.1735
2023-05-19T04:48:00.238Z,84.3347
2023-05-19T04:49:02.403Z,84.7630
2023-05-19T04:50:04.325Z,84.8486
2023-05-19T04:51:06.278Z,84.5673
2023-05-19T04:52:07.500Z,83.6488
2023-05-19T04:53:08.783Z,83.8926
2023-05-19T04:54:10.737Z,84.4862
2023-05-19T04:55:11.926Z,84.4168
2023-05-19T04:56:13.166Z,83.2999
2023-05-19T04:57:15.066Z,82.6199
2023-05-19T04:58:16.262Z,83.2340
2023-05-19T04:59:17.451Z,82.7776
2023-05-19T05:00:18.708Z,82.9203
2023-05-19T05:01:20.576Z,82.3039
2023-05-19T05:02:22.617Z,83.1002
2023-05-19T05:03:24.665Z,82.2085
2023-05-19T05:04:25.917Z,81.9259
2023-05-19T05:05:27.818Z,82.2049
2023-05-19T05:06:29.788Z,82.2477
2023-05-19T05:07:32.232Z,82.0596
2023-05-19T05:13:39.303Z,82.4471
2023-05-19T05:14:40.541Z,81.7730
2023-05-19T05:15:41.778Z,81.0295
2023-05-19T05:16:43.064Z,80.6018
2023-05-19T05:17:44.671Z,80.8547
2023-05-19T05:18:46.489Z,80.3620
2023-05-19T05:19:48.381Z,81.2869
2023-05-19T05:20:49.597Z,80.5925
2023-05-19T05:21:52.336Z,79.7085
2023-05-19T05:24:53.971Z,80.6926
2023-05-19T05:25:55.863Z,80.8367
2023-05-19T05:26:57.133Z,81.3754
2023-05-19T05:27:59.053Z,81.2494
2023-05-19T05:31:02.377Z,81.6091
2023-05-19T05:35:06.844Z,81.6281
2023-05-19T05:36:08.033Z,81.1577
2023-05-19T05:37:09.265Z,81.8051
2023-05-19T05:38:11.416Z,81.5923
2023-05-19T05:39:12.790Z,82.4947
2023-05-19T05:40:14.776Z,81.6079
2023-05-19T05:41:16.055Z,81.7082
2023-05-19T05:42:17.383Z,82.2846
2023-05-19T05:43:18.623Z,81.9711
2023-05-19T05:44:19.866Z,82.4749
2023-05-19T05:45:21.145Z,82.5687
2023-05-19T05:46:22.503Z,82.3879
2023-05-19T05:47:23.745Z,82.3928
2023-05-19T05:48:25.007Z,82.4838
2023-05-19T05:49:26.251Z,82.0902
2023-05-19T05:50:29.086Z,82.2938
2023-05-19T05:51:30.343Z,81.8825
2023-05-19T05:52:32.167Z,82.2742
2023-05-19T05:53:33.437Z,82.4833
2023-05-19T05:54:34.695Z,82.4512
2023-05-19T05:55:36.531Z,82.0460
2023-05-19T05:56:37.808Z,81.6747
2023-05-19T05:57:39.080Z,82.0041
2023-05-19T05:58:40.967Z,82.1090
2023-05-19T05:59:42.833Z,82.3207
2023-05-19T06:00:44.735Z,82.3446
2023-05-19T06:01:46.848Z,82.0513
2023-05-19T06:02:48.904Z,82.1576
2023-05-19T06:03:50.238Z,82.3019
2023-05-19T06:05:53.621Z,82.4268
2023-05-19T06:06:54.919Z,82.0506
2023-05-19T06:07:56.198Z,81.5356
2023-05-19T06:08:57.506Z,81.3737
2023-05-19T06:10:00.012Z,81.6285
2023-05-19T06:11:01.271Z,81.3729
2023-05-19T06:13:04.755Z,81.8843
2023-05-19T06:14:06.668Z,82.0614
2023-05-19T06:15:07.933Z,82.0666
2023-05-19T06:16:10.396Z,81.7651
2023-05-19T06:17:12.754Z,82.2383
2023-05-19T06:18:14.087Z,82.1322
2023-05-19T06:19:15.401Z,82.5545
2023-05-19T06:21:18.295Z,82.0995
2023-05-19T06:22:19.535Z,82.1999
2023-05-19T06:24:21.861Z,82.1599
2023-05-19T06:25:23.148Z,81.9480
2023-05-19T06:26:24.454Z,81.9563
2023-05-19T06:27:25.691Z,82.8355
2023-05-19T06:28:28.125Z,82.5325
2023-05-19T06:29:29.399Z,82.8061
2023-05-19T06:30:31.586Z,82.8859
2023-05-19T06:31:34.022Z,82.8405
2023-05-19T06:32:35.880Z,82.6069
2023-05-19T06:33:37.162Z,81.7494
2023-05-19T06:34:39.091Z,82.3085
2023-05-19T06:35:41.038Z,82.7847
2023-05-19T06:36:42.420Z,82.8208
2023-05-19T06:37:45.331Z,82.3827
2023-05-19T06:45:52.851Z,82.5034
2023-05-19T06:46:54.146Z,82.1376
2023-05-19T06:47:55.539Z,82.5689
2023-05-19T06:50:59.768Z,82.3575
2023-05-19T06:53:03.579Z,81.8626
2023-05-19T06:54:04.950Z,82.2499
2023-05-19T06:55:06.519Z,82.7405
2023-05-19T06:56:07.869Z,83.2328
2023-05-19T06:57:33.224Z,82.8989
2023-05-19T07:01:14.600Z,82.2386
2023-05-19T07:02:16.648Z,81.8595
2023-05-19T07:03:19.126Z,81.7620
2023-05-19T07:04:20.448Z,81.4764
2023-05-19T07:05:21.682Z,81.8488
2023-05-19T07:06:23.698Z,81.6083
2023-05-19T07:07:25.513Z,81.6022
2023-05-19T07:08:26.821Z,81.7085
2023-05-19T07:09:28.100Z,81.6508
2023-05-19T07:10:30.075Z,81.1266
2023-05-19T07:11:31.373Z,80.8114
2023-05-19T07:12:33.679Z,80.7472
2023-05-19T07:13:34.945Z,80.7254
2023-05-19T07:14:36.957Z,80.7592
2023-05-19T07:15:38.191Z,81.0666
2023-05-19T07:16:39.429Z,80.5905
2023-05-19T07:18:42.648Z,81.0872
2023-05-19T07:19:44.709Z,80.8734
2023-05-19T07:20:46.015Z,80.7845
2023-05-19T07:22:49.026Z,80.8824
2023-05-19T07:23:51.001Z,80.1341
2023-05-19T07:24:52.280Z,79.5694
2023-05-19T07:25:54.269Z,79.9450
2023-05-19T07:26:56.906Z,80.5273
2023-05-19T07:27:59.243Z,79.7633
2023-05-19T07:29:12.214Z,79.8227
2023-05-19T07:30:02.199Z,79.6841
2023-05-19T07:31:03.440Z,78.9115
2023-05-19T07:32:04.737Z,79.9261
2023-05-19T07:33:06.089Z,78.8308
2023-05-19T07:34:07.353Z,78.8525
2023-05-19T07:35:08.622Z,79.4713
2023-05-19T07:36:09.876Z,79.5985
2023-05-19T07:37:11.150Z,79.8950
2023-05-19T07:38:12.472Z,80.3130
2023-05-19T07:43:18.227Z,78.3282
2023-05-19T07:44:19.525Z,78.4223
2023-05-19T07:46:21.943Z,77.1185
2023-05-19T07:47:23.768Z,77.9120
2023-05-19T07:49:26.741Z,77.3075
2023-05-19T07:50:28.808Z,76.7643
2023-05-19T07:51:30.725Z,75.9823
2023-05-19T07:52:31.986Z,76.2839
2023-05-19T07:53:34.001Z,77.0240
2023-05-19T07:54:35.353Z,75.8318
2023-05-19T07:55:36.605Z,75.4031
2023-05-19T07:56:37.872Z,76.7944
2023-05-19T07:57:39.822Z,76.9370
2023-05-19T07:58:41.761Z,76.0415
2023-05-19T07:59:42.993Z,76.0955
2023-05-19T08:00:45.208Z,76.5207
2023-05-19T08:01:47.047Z,76.9758
2023-05-19T08:02:49.451Z,76.4508
2023-05-19T08:04:52.951Z,76.4254
2023-05-19T08:05:54.936Z,77.2346
2023-05-19T08:06:56.220Z,77.9257
2023-05-19T08:07:57.504Z,77.5382
2023-05-19T08:08:59.334Z,78.4268
2023-05-19T08:10:00.605Z,78.4720
2023-05-19T08:11:01.943Z,78.6055
2023-05-19T08:12:03.230Z,79.2037
2023-05-19T08:13:07.040Z,78.8556
2023-05-19T08:16:09.281Z,79.5270
2023-05-19T08:17:11.121Z,77.9929
2023-05-19T08:18:13.021Z,77.8567
2023-05-19T08:19:14.367Z,77.6962
2023-05-19T08:20:16.285Z,77.7978
2023-05-19T08:21:18.400Z,77.1432
2023-05-19T08:22:20.325Z,77.9528
2023-05-19T08:23:22.250Z,77.3243
2023-05-19T08:24:25.313Z,78.0022
2023-05-19T08:25:24.462Z,77.4806
2023-05-19T08:26:26.324Z,78.4873
2023-05-19T08:27:31.079Z,77.6334
2023-05-19T08:40:43.462Z,78.6252
2023-05-19T08:41:44.805Z,77.5435
2023-05-19T08:45:01.321Z,77.3591
2023-05-19T08:45:48.796Z,77.6043
2023-05-19T08:46:50.129Z,78.0469
2023-05-19T08:47:51.505Z,77.2057
2023-05-19T08:48:52.830Z,77.3720
2023-05-19T08:49:54.132Z,76.8679
2023-05-19T08:50:55.413Z,75.9334
2023-05-19T08:51:56.695Z,76.1978
2023-05-19T08:52:57.995Z,75.4335
2023-05-19T08:53:59.207Z,75.6992
2023-05-19T08:55:00.490Z,75.5209
2023-05-19T08:56:01.770Z,75.3065
2023-05-19T08:57:03.152Z,74.1656
2023-05-19T08:58:04.454Z,73.3486
2023-05-19T08:59:05.735Z,74.3859
2023-05-19T09:00:07.044Z,74.5585
2023-05-19T09:01:08.390Z,73.2757
2023-05-19T09:02:09.629Z,74.5161
2023-05-19T09:03:18.105Z,73.9638
2023-05-19T09:04:12.921Z,73.7467
2023-05-19T09:05:14.284Z,74.6494
2023-05-19T09:06:15.582Z,75.2741
2023-05-19T09:07:16.911Z,75.0770
2023-05-19T09:08:18.253Z,75.1841
2023-05-19T09:09:19.796Z,76.4038
2023-05-19T09:10:21.134Z,75.9282
2023-05-19T09:11:22.584Z,73.4558
2023-05-19T09:12:23.962Z,75.8742
2023-05-19T09:14:26.494Z,75.5767
2023-05-19T09:15:27.778Z,76.6316
2023-05-19T09:16:30.184Z,75.3445
2023-05-19T09:17:31.759Z,75.5392
2023-05-19T09:18:33.106Z,74.4088
2023-05-19T09:19:34.493Z,74.5257
2023-05-19T09:20:35.835Z,75.7760
2023-05-19T09:21:37.140Z,75.2544
2023-05-19T09:22:38.454Z,75.8893
2023-05-19T09:23:39.779Z,76.6624
2023-05-19T09:25:42.211Z,77.3554
2023-05-19T09:26:43.513Z,77.4385
2023-05-19T09:27:44.805Z,77.5401
2023-05-19T09:28:46.132Z,77.1654
2023-05-19T09:29:47.423Z,76.4547
2023-05-19T09:30:48.697Z,77.8010
2023-05-19T09:31:50.033Z,77.6290
2023-05-19T09:43:02.731Z,75.2184
2023-05-19T09:44:03.973Z,74.0582
2023-05-19T09:45:05.254Z,73.1130
2023-05-19T09:46:06.782Z,73.5990
2023-05-19T09:47:08.478Z,74.1058
2023-05-19T09:48:09.712Z,74.5626
2023-05-19T09:49:11.030Z,74.6580
2023-05-19T09:50:12.272Z,74.0151
2023-05-19T09:51:13.510Z,73.4490
2023-05-19T09:52:14.777Z,73.2287
2023-05-19T09:53:16.525Z,72.9527
2023-05-19T09:54:17.809Z,71.5937
2023-05-19T09:55:19.091Z,73.5092
2023-05-19T09:56:20.377Z,72.3861
2023-05-19T09:57:21.751Z,74.0047
2023-05-19T09:58:23.037Z,73.6948
2023-05-19T09:59:24.366Z,72.0656
2023-05-19T10:00:25.657Z,72.3304
2023-05-19T10:01:26.990Z,71.6978
2023-05-19T10:02:28.512Z,73.1865
2023-05-19T10:03:29.878Z,73.4964
2023-05-19T10:04:31.465Z,73.0555
2023-05-19T10:05:32.957Z,73.3645
2023-05-19T10:06:34.511Z,73.0397
2023-05-19T10:07:35.753Z,71.0586
2023-05-19T10:08:37.047Z,71.5934
2023-05-19T10:09:38.298Z,71.2364
2023-05-19T10:10:39.657Z,69.9805
2023-05-19T10:11:40.909Z,71.0949
2023-05-19T10:12:42.230Z,70.8976
2023-05-19T10:14:45.045Z,70.1311
2023-05-19T10:15:57.067Z,72.2780
2023-05-19T10:16:48.029Z,72.5840
2023-05-19T10:17:49.475Z,73.2675
2023-05-19T10:18:50.840Z,71.0722
2023-05-19T10:19:52.128Z,71.9958
2023-05-19T10:20:53.537Z,72.1477
2023-05-19T10:21:54.870Z,71.8635
2023-05-19T10:22:56.225Z,72.6151
2023-05-19T10:23:57.519Z,71.9932
2023-05-19T10:28:02.261Z,72.8652
2023-05-19T10:48:25.660Z,70.4009
2023-05-19T10:49:26.965Z,71.1598
2023-05-19T10:50:28.372Z,71.7772
2023-05-19T10:51:29.690Z,72.6180
2023-05-19T10:52:31.014Z,72.3577
2023-05-19T10:54:33.604Z,70.6936
2023-05-19T10:55:35.083Z,70.9710
2023-05-19T10:56:36.781Z,69.6311
2023-05-19T10:57:38.182Z,67.7150
2023-05-19T10:58:39.504Z,69.6791
2023-05-19T10:59:40.889Z,70.2985
2023-05-19T11:00:42.223Z,69.3847
2023-05-19T11:01:43.762Z,68.0554
2023-05-19T11:02:45.091Z,69.1137
2023-05-19T11:03:46.455Z,68.1539
2023-05-19T11:04:50.239Z,70.0812
2023-05-19T11:05:50.336Z,69.2489
2023-05-19T11:06:51.801Z,70.0909
2023-05-19T11:07:53.198Z,70.0377
2023-05-19T11:08:54.535Z,71.0520
2023-05-19T11:09:55.836Z,72.7481
2023-05-19T11:10:57.224Z,70.3515
2023-05-19T11:11:58.528Z,71.0176
2023-05-19T11:12:59.933Z,70.6192
2023-05-19T11:15:02.367Z,71.3973
2023-05-19T11:16:03.753Z,71.7739
2023-05-19T11:17:05.155Z,69.9008
2023-05-19T11:18:06.550Z,70.2817
2023-05-19T11:19:08.017Z,70.4591
2023-05-19T11:20:09.373Z,71.3719
2023-05-19T11:21:10.702Z,70.9657
2023-05-19T11:22:12.027Z,66.8331
2023-05-19T11:23:13.383Z,69.3174
2023-05-19T11:24:14.635Z,67.9574
2023-05-19T11:25:15.957Z,69.6712
2023-05-19T11:26:17.256Z,69.4718
2023-05-19T11:27:18.573Z,70.7219
2023-05-19T11:28:20.139Z,70.5606
2023-05-19T11:29:21.532Z,72.0408
2023-05-19T11:30:22.831Z,71.9226
2023-05-19T11:31:24.147Z,72.1894
2023-05-19T11:32:25.522Z,71.4465
2023-05-19T11:33:26.835Z,71.4810
2023-05-19T11:34:28.155Z,71.1711
2023-05-19T11:36:30.667Z,69.9386
2023-05-19T11:37:31.956Z,67.7405
2023-05-19T11:38:33.263Z,67.7994
2023-05-19T11:39:34.596Z,67.1801
2023-05-19T11:40:35.898Z,68.4643
2023-05-19T11:41:37.277Z,67.5737
2023-05-19T11:42:38.580Z,65.6767
2023-05-19T11:43:39.912Z,64.5941
2023-05-19T11:44:41.300Z,63.1335
2023-05-19T11:46:43.877Z,66.8231
2023-05-19T11:48:00.284Z,65.0353
2023-05-19T11:48:46.966Z,66.6670
2023-05-19T11:50:14.740Z,65.9780
2023-05-19T11:51:16.125Z,66.9970
2023-05-19T11:52:17.519Z,67.1138
2023-05-19T11:53:18.995Z,66.1314
2023-05-19T11:54:20.557Z,64.9480
2023-05-19T11:55:21.956Z,63.6194
2023-05-19T11:56:23.355Z,63.3826
2023-05-19T11:57:24.726Z,63.5369
2023-05-19T11:58:26.072Z,64.0510
2023-05-19T11:59:27.480Z,64.6682
2023-05-19T12:00:28.916Z,64.1308
2023-05-19T12:01:30.285Z,63.3735
2023-05-19T12:02:31.874Z,61.7799
2023-05-19T12:03:33.407Z,64.2753
2023-05-19T12:04:34.864Z,63.6314
2023-05-19T12:05:39.915Z,61.5973
2023-05-19T12:06:38.125Z,62.0272
2023-05-19T12:07:39.636Z,60.4987
2023-05-19T12:08:40.983Z,64.1052
2023-05-19T12:09:42.387Z,62.9607
2023-05-19T12:10:43.802Z,64.3544
2023-05-19T12:11:45.150Z,65.7274
2023-05-19T12:12:46.557Z,65.2815
2023-05-19T12:15:50.453Z,65.7634
2023-05-19T12:16:52.042Z,64.0617
2023-05-19T12:17:53.551Z,63.9393
2023-05-19T12:18:54.951Z,64.4621
2023-05-19T12:19:56.376Z,63.3587
2023-05-19T12:20:58.032Z,62.3829
2023-05-19T12:21:59.444Z,63.6864
2023-05-19T12:23:01.036Z,64.0216
2023-05-19T12:24:02.678Z,63.1904
2023-05-19T12:26:05.281Z,64.3030
2023-05-19T12:27:06.720Z,63.6305
2023-05-19T12:28:08.190Z,63.4678
2023-05-19T12:29:09.704Z,63.9543
2023-05-19T12:30:11.284Z,63.4474
2023-05-19T12:31:12.750Z,62.2277
2023-05-19T12:32:14.146Z,61.5891
2023-05-19T12:33:15.637Z,63.3276
2023-05-19T12:34:17.035Z,62.8901
2023-05-19T12:35:18.553Z,62.9561
2023-05-19T12:37:21.221Z,62.6342
2023-05-19T12:55:43.824Z,66.8756
2023-05-19T12:56:45.186Z,65.0555
2023-05-19T12:57:47.982Z,67.0337
2023-05-19T12:58:47.276Z,65.9876
2023-05-19T12:59:48.601Z,64.8680
2023-05-19T13:00:50.180Z,65.9482
2023-05-19T13:01:51.765Z,65.4701
2023-05-19T13:03:54.478Z,66.5037
2023-05-19T13:04:56.115Z,66.0557
2023-05-19T13:05:57.485Z,66.1255
2023-05-19T13:06:58.958Z,64.3076
2023-05-19T13:08:00.362Z,64.3066
2023-05-19T13:09:01.695Z,63.9882
2023-05-19T13:10:03.081Z,64.0738
2023-05-19T13:11:04.440Z,62.5385
2023-05-19T13:12:05.847Z,61.9180
2023-05-19T13:14:08.374Z,64.9584
2023-05-19T13:15:09.833Z,67.3231
2023-05-19T13:16:11.273Z,67.3659
2023-05-19T13:19:24.986Z,68.9597
2023-05-19T13:20:17.170Z,69.5144
2023-05-19T13:21:18.521Z,70.1385
2023-05-19T13:22:19.853Z,71.1104
2023-05-19T13:23:21.258Z,70.2344
2023-05-19T13:24:22.642Z,69.9299
2023-05-19T13:25:24.026Z,70.3008
2023-05-19T13:26:25.425Z,69.5727
2023-05-19T13:27:26.806Z,68.4563
2023-05-19T13:28:28.221Z,68.5885
2023-05-19T13:29:29.604Z,68.4722
2023-05-19T13:30:31.050Z,66.7047
2023-05-19T13:31:32.635Z,68.2380
2023-05-19T13:32:34.070Z,67.5654
2023-05-19T13:33:35.573Z,68.4006
2023-05-19T13:35:38.432Z,69.7060
2023-05-19T13:36:40.045Z,69.0741
2023-05-19T13:37:41.455Z,69.5593
2023-05-19T13:38:43.006Z,70.2274
2023-05-19T13:39:44.314Z,69.5364
2023-05-19T13:40:45.724Z,69.5900
2023-05-19T13:41:47.189Z,69.7506
2023-05-19T13:42:48.617Z,70.4006
2023-05-19T13:43:49.972Z,71.1100
2023-05-19T13:44:51.529Z,69.8664
2023-05-19T13:45:52.936Z,68.5963
2023-05-19T13:47:55.685Z,69.4955
2023-05-19T13:48:57.046Z,69.5450
2023-05-19T13:49:58.478Z,69.8148
2023-05-19T13:50:59.891Z,68.3095
2023-05-19T13:52:02.167Z,68.6300
2023-05-19T13:53:03.542Z,67.4173
2023-05-19T13:54:05.301Z,68.7232
2023-05-19T13:55:06.695Z,68.3314
2023-05-19T13:56:08.255Z,67.3678
2023-05-19T13:57:09.606Z,68.1710
2023-05-19T13:58:11.048Z,69.2082
2023-05-19T13:59:12.581Z,68.5107
2023-05-19T14:01:15.245Z,69.7369
2023-05-19T14:02:16.676Z,69.7360
2023-05-19T14:03:18.126Z,70.0207
2023-05-19T14:04:19.697Z,70.4382
2023-05-19T14:05:21.522Z,71.7667
2023-05-19T14:06:22.894Z,70.4660
2023-05-19T14:07:24.217Z,71.0511
2023-05-19T14:08:25.650Z,70.7158
2023-05-19T14:09:28.080Z,71.1269
2023-05-19T14:10:27.875Z,70.8322
2023-05-19T14:11:29.219Z,71.7402
2023-05-19T14:12:38.159Z,72.7036
2023-05-19T14:13:36.123Z,73.8054
2023-05-19T14:14:34.543Z,71.2163
2023-05-19T14:15:35.978Z,73.0128
2023-05-19T14:16:38.286Z,71.0214
2023-05-19T14:17:39.889Z,73.5728
2023-05-19T14:18:41.344Z,72.5924
2023-05-19T14:19:42.783Z,72.5659
2023-05-19T14:21:45.381Z,71.1127
2023-05-19T14:22:46.793Z,70.1604
2023-05-19T14:23:48.166Z,70.6782
2023-05-19T14:24:49.491Z,69.5662
2023-05-19T14:25:50.868Z,70.8025
2023-05-19T14:26:52.227Z,69.3705
2023-05-19T14:27:53.655Z,70.3903
2023-05-19T14:28:55.003Z,71.1346
2023-05-19T14:29:56.703Z,73.7614
2023-05-19T14:31:59.865Z,71.2906
2023-05-19T14:33:01.364Z,72.0534
2023-05-19T14:34:02.807Z,70.8117
2023-05-19T14:35:04.178Z,69.6338
2023-05-19T14:36:05.604Z,69.9682
2023-05-19T14:37:06.993Z,70.0814
2023-05-19T14:38:08.384Z,70.5668
2023-05-19T14:39:09.759Z,70.9701
2023-05-19T14:41:12.383Z,70.9320
2023-05-19T14:42:13.789Z,69.9048
2023-05-19T14:43:15.240Z,69.0714
2023-05-19T14:44:16.550Z,69.0904
2023-05-19T14:45:18.897Z,70.6571
2023-05-19T14:46:20.372Z,70.1543
2023-05-19T14:47:21.762Z,69.9165
2023-05-19T14:48:23.162Z,69.3539
2023-05-19T14:49:24.593Z,70.1330
2023-05-19T14:50:27.849Z,69.5065
2023-05-19T14:51:27.776Z,68.6540
2023-05-19T14:52:29.204Z,70.0733
2023-05-19T14:53:30.669Z,69.1843
2023-05-19T14:54:32.053Z,68.2270
2023-05-19T14:55:33.463Z,69.0917
2023-05-19T14:56:34.906Z,68.5136
2023-05-19T14:57:36.353Z,69.9497
2023-05-19T14:58:37.794Z,69.5583
2023-05-19T14:59:39.177Z,69.1866
2023-05-19T15:00:40.630Z,69.0301
2023-05-19T15:01:42.037Z,69.7480
2023-05-19T15:02:43.532Z,69.3490
2023-05-19T15:03:44.990Z,69.8466
2023-05-19T15:06:58.234Z,69.4948
2023-05-19T15:07:50.802Z,68.9509
2023-05-19T15:08:52.204Z,69.2474
2023-05-19T15:09:53.635Z,69.2830
2023-05-19T15:10:55.053Z,70.4098
2023-05-19T15:11:56.411Z,69.1710
2023-05-19T15:12:58.091Z,68.7768
2023-05-19T15:16:12.365Z,68.9720
2023-05-19T15:17:03.617Z,70.9000
2023-05-19T15:18:05.287Z,71.8166
2023-05-19T15:19:06.697Z,70.7077
2023-05-19T15:20:08.140Z,69.4819
2023-05-19T15:21:09.586Z,70.9178